createdAt,value
2022-08-26T00:00:50.614Z,12.47
2022-08-26T00:03:54.359Z,13.61
2022-08-26T00:06:57.936Z,14.70
2022-08-26T00:10:01.354Z,16.53
2022-08-26T00:13:05.658Z,18.68
2022-08-26T00:16:10.678Z,18.38
2022-08-26T00:19:15.031Z,17.28
2022-08-26T00:22:21.501Z,16.37
2022-08-26T00:25:25.481Z,15.47
2022-08-26T00:28:28.645Z,14.84
2022-08-26T00:31:31.788Z,14.42
2022-08-26T00:34:35.390Z,14.20
2022-08-26T00:37:38.972Z,14.09
2022-08-26T00:40:47.744Z,13.88
2022-08-26T00:43:52.367Z,13.74
2022-08-26T00:47:01.319Z,13.69
2022-08-26T00:50:08.820Z,13.59
2022-08-26T00:53:24.093Z,13.49
2022-08-26T00:57:08.661Z,13.61
2022-08-26T01:00:24.135Z,13.63
2022-08-26T01:03:29.752Z,13.61
2022-08-26T01:06:32.837Z,13.70
2022-08-26T01:09:37.137Z,13.75
2022-08-26T01:12:53.145Z,13.89
2022-08-26T01:15:59.769Z,13.98
2022-08-26T01:19:14.738Z,14.21
2022-08-26T01:22:23.077Z,14.26
2022-08-26T01:25:33.929Z,14.42
2022-08-26T01:28:38.949Z,14.54
2022-08-26T01:31:48.237Z,14.80
2022-08-26T01:34:53.309Z,15.03
2022-08-26T01:37:56.700Z,15.50
2022-08-26T01:41:00.582Z,15.82
2022-08-26T01:44:07.368Z,16.41
2022-08-26T01:47:16.130Z,16.94
2022-08-26T01:50:30.392Z,17.27
2022-08-26T01:53:33.950Z,17.39
2022-08-26T01:56:37.282Z,17.36
2022-08-26T01:59:40.346Z,17.46
2022-08-26T02:02:47.231Z,17.49
2022-08-26T02:05:58.864Z,17.41
2022-08-26T02:09:04.513Z,17.05
2022-08-26T02:12:08.381Z,16.66
2022-08-26T02:15:13.722Z,16.43
2022-08-26T02:18:17.625Z,16.22
2022-08-26T02:21:21.621Z,16.01
2022-08-26T02:24:46.774Z,15.94
2022-08-26T02:27:49.946Z,15.88
2022-08-26T02:30:55.433Z,15.80
2022-08-26T02:34:11.235Z,15.86
2022-08-26T02:37:15.092Z,15.80
2022-08-26T02:40:24.871Z,15.86
2022-08-26T02:43:31.622Z,15.89
2022-08-26T02:46:38.739Z,16.01
2022-08-26T02:49:44.859Z,16.14
2022-08-26T02:52:50.658Z,16.20
2022-08-26T02:55:53.843Z,16.25
2022-08-26T02:58:57.116Z,16.28
2022-08-26T03:02:00.990Z,16.34
2022-08-26T03:05:04.445Z,16.34
2022-08-26T03:08:12.479Z,16.27
2022-08-26T03:11:15.948Z,16.26
2022-08-26T03:14:19.057Z,16.28
2022-08-26T03:17:22.137Z,16.50
2022-08-26T03:20:25.220Z,16.64
2022-08-26T03:23:28.432Z,16.79
2022-08-26T03:26:31.809Z,16.97
2022-08-26T03:29:53.731Z,16.98
2022-08-26T03:32:56.985Z,16.86
2022-08-26T03:36:01.215Z,16.89
2022-08-26T03:39:04.560Z,16.91
2022-08-26T03:42:07.851Z,17.03
2022-08-26T03:45:12.653Z,17.21
2022-08-26T03:48:15.400Z,17.49
2022-08-26T03:51:20.050Z,17.61
2022-08-26T03:54:24.232Z,17.85
2022-08-26T03:57:27.493Z,18.07
2022-08-26T04:00:31.405Z,18.31
2022-08-26T04:03:52.932Z,18.43
2022-08-26T04:07:00.102Z,18.39
2022-08-26T04:10:03.649Z,17.98
2022-08-26T04:13:07.871Z,18.06
2022-08-26T04:16:11.031Z,17.98
2022-08-26T04:19:16.037Z,18.01
2022-08-26T04:22:24.405Z,18.09
2022-08-26T04:25:28.441Z,18.20
2022-08-26T04:28:31.562Z,18.20
2022-08-26T04:31:36.382Z,18.22
2022-08-26T04:34:39.310Z,18.32
2022-08-26T04:37:43.094Z,18.25
2022-08-26T04:40:47.276Z,18.35
2022-08-26T04:43:50.969Z,18.43
2022-08-26T04:46:55.512Z,18.48
2022-08-26T04:49:59.017Z,18.50
2022-08-26T04:53:02.322Z,18.54
2022-08-26T04:56:09.199Z,18.48
2022-08-26T04:59:18.465Z,18.52
2022-08-26T05:02:21.856Z,18.57
2022-08-26T05:05:25.820Z,18.57
2022-08-26T05:08:29.438Z,18.55
2022-08-26T05:11:32.876Z,18.62
2022-08-26T05:14:36.123Z,18.71
2022-08-26T05:17:40.023Z,18.70
2022-08-26T05:20:46.502Z,18.69
2022-08-26T05:23:51.982Z,18.71
2022-08-26T05:26:56.533Z,18.67
2022-08-26T05:29:59.310Z,18.77
2022-08-26T05:33:02.750Z,18.67
2022-08-26T05:36:15.809Z,18.66
2022-08-26T05:39:19.640Z,18.58
2022-08-26T05:42:22.635Z,18.59
2022-08-26T05:45:26.603Z,18.68
2022-08-26T05:48:29.956Z,18.70
2022-08-26T05:51:33.314Z,18.77
2022-08-26T05:54:36.414Z,18.82
2022-08-26T05:57:42.783Z,18.95
2022-08-26T06:00:46.045Z,18.92
2022-08-26T06:03:54.195Z,19.06
2022-08-26T06:06:57.271Z,19.10
2022-08-26T06:10:21.664Z,19.17
2022-08-26T06:13:31.948Z,19.18
2022-08-26T06:16:40.965Z,19.11
2022-08-26T06:19:44.338Z,19.06
2022-08-26T06:23:05.910Z,19.15
2022-08-26T06:26:11.035Z,19.22
2022-08-26T06:29:15.462Z,19.31
2022-08-26T06:32:28.150Z,19.36
2022-08-26T06:35:37.587Z,19.40
2022-08-26T06:38:40.649Z,19.43
2022-08-26T06:41:45.639Z,19.51
2022-08-26T06:44:53.347Z,19.53
2022-08-26T06:47:56.549Z,19.53
2022-08-26T06:51:15.709Z,19.53
2022-08-26T06:54:20.269Z,19.50
2022-08-26T06:57:23.394Z,19.56
2022-08-26T07:00:26.467Z,19.64
2022-08-26T07:03:29.634Z,19.71
2022-08-26T07:06:41.101Z,19.62
2022-08-26T07:09:47.409Z,19.64
2022-08-26T07:12:55.438Z,19.74
2022-08-26T07:15:58.640Z,19.82
2022-08-26T07:19:11.036Z,19.84
2022-08-26T07:22:14.700Z,19.86
2022-08-26T07:25:17.760Z,19.90
2022-08-26T07:28:23.338Z,19.80
2022-08-26T07:31:28.137Z,19.76
2022-08-26T07:34:33.416Z,19.78
2022-08-26T07:37:39.242Z,19.67
2022-08-26T07:40:43.136Z,19.64
2022-08-26T07:43:47.021Z,19.61
2022-08-26T07:46:53.205Z,19.62
2022-08-26T07:49:58.064Z,19.67
2022-08-26T07:53:02.794Z,19.60
2022-08-26T07:56:05.598Z,19.75
2022-08-26T07:59:13.730Z,19.61
2022-08-26T08:02:17.163Z,19.60
2022-08-26T08:05:22.260Z,19.70
2022-08-26T08:08:30.492Z,19.79
2022-08-26T08:11:35.279Z,19.87
2022-08-26T08:14:38.417Z,19.94
2022-08-26T08:17:44.217Z,19.91
2022-08-26T08:20:54.661Z,19.85
2022-08-26T08:24:08.617Z,19.80
2022-08-26T08:27:11.628Z,19.76
2022-08-26T08:30:22.902Z,19.69
2022-08-26T08:33:26.819Z,19.63
2022-08-26T08:36:35.979Z,19.65
2022-08-26T08:39:39.521Z,19.69
2022-08-26T08:43:00.648Z,19.71
2022-08-26T08:46:16.074Z,19.69
2022-08-26T08:49:19.736Z,19.66
2022-08-26T08:52:36.240Z,19.66
2022-08-26T08:56:08.618Z,19.60
2022-08-26T08:59:28.355Z,19.57
2022-08-26T09:02:35.313Z,19.52
2022-08-26T09:05:48.561Z,19.50
2022-08-26T09:08:52.888Z,19.45
2022-08-26T09:11:59.384Z,19.44
2022-08-26T09:15:18.805Z,19.46
2022-08-26T09:18:56.086Z,19.46
2022-08-26T09:22:00.677Z,19.36
2022-08-26T09:25:06.382Z,19.44
2022-08-26T09:28:18.476Z,19.30
2022-08-26T09:31:27.012Z,19.24
2022-08-26T09:34:33.283Z,19.18
2022-08-26T09:37:39.170Z,19.15
2022-08-26T09:40:42.253Z,19.13
2022-08-26T09:44:22.193Z,19.14
2022-08-26T09:47:32.226Z,19.07
2022-08-26T09:51:16.344Z,19.05
2022-08-26T09:54:30.379Z,18.98
2022-08-26T09:57:37.137Z,18.95
2022-08-26T10:00:55.962Z,18.91
2022-08-26T10:04:24.709Z,18.86
2022-08-26T10:07:42.495Z,18.82
2022-08-26T10:10:46.666Z,18.75
2022-08-26T10:14:00.352Z,18.71
2022-08-26T10:17:10.959Z,18.67
2022-08-26T10:20:37.495Z,18.54
2022-08-26T10:23:46.877Z,18.37
2022-08-26T10:27:20.436Z,18.19
2022-08-26T10:30:28.137Z,18.07
2022-08-26T10:33:31.593Z,17.97
2022-08-26T10:37:14.568Z,17.94
2022-08-26T10:40:21.126Z,17.88
2022-08-26T10:43:48.696Z,17.82
2022-08-26T10:46:59.883Z,17.70
2022-08-26T10:50:03.862Z,17.57
2022-08-26T10:53:33.103Z,17.44
2022-08-26T10:57:21.136Z,17.36
2022-08-26T11:00:52.965Z,17.23
2022-08-26T11:04:05.170Z,17.08
2022-08-26T11:07:31.784Z,16.97
2022-08-26T11:10:44.154Z,16.84
2022-08-26T11:14:05.793Z,16.73
2022-08-26T11:17:12.244Z,16.61
2022-08-26T11:20:24.386Z,16.52
2022-08-26T11:23:27.758Z,16.43
2022-08-26T11:26:56.247Z,16.37
2022-08-26T11:30:11.357Z,16.28
2022-08-26T11:33:50.891Z,16.15
2022-08-26T11:36:58.919Z,16.02
2022-08-26T11:40:05.145Z,15.86
2022-08-26T11:43:29.780Z,15.69
2022-08-26T11:46:37.975Z,15.45
2022-08-26T11:49:42.445Z,15.24
2022-08-26T11:53:02.423Z,15.08
2022-08-26T11:56:11.299Z,14.94
2022-08-26T11:59:24.096Z,14.88
2022-08-26T12:02:31.244Z,14.83
2022-08-26T12:05:44.626Z,14.78
2022-08-26T12:08:48.687Z,14.67
2022-08-26T12:11:53.363Z,14.54
2022-08-26T12:15:21.050Z,14.33
2022-08-26T12:18:31.015Z,14.18
2022-08-26T12:21:34.825Z,14.12
2022-08-26T12:24:44.752Z,14.19
2022-08-26T12:27:53.099Z,14.29
2022-08-26T12:31:05.188Z,14.32
2022-08-26T12:34:17.944Z,14.29
2022-08-26T12:37:21.703Z,14.28
2022-08-26T12:40:44.661Z,14.36
2022-08-26T12:43:47.661Z,14.32
2022-08-26T12:46:50.844Z,14.31
2022-08-26T12:50:22.170Z,14.27
2022-08-26T12:53:31.661Z,14.19
2022-08-26T12:56:40.416Z,13.96
2022-08-26T12:59:43.557Z,13.97
2022-08-26T13:02:47.040Z,13.95
2022-08-26T13:05:50.189Z,13.89
2022-08-26T13:08:55.948Z,13.85
2022-08-26T13:11:59.820Z,13.79
2022-08-26T13:15:07.395Z,13.76
2022-08-26T13:18:10.470Z,13.69
2022-08-26T13:21:38.331Z,13.69
2022-08-26T13:24:43.823Z,13.71
2022-08-26T13:27:46.909Z,13.70
2022-08-26T13:30:50.335Z,13.77
2022-08-26T13:33:53.389Z,13.82
2022-08-26T13:36:57.222Z,13.85
2022-08-26T13:40:00.713Z,13.88
2022-08-26T13:43:04.059Z,13.90
2022-08-26T13:46:07.263Z,13.88
2022-08-26T13:49:11.309Z,13.86
2022-08-26T13:52:15.343Z,13.85
2022-08-26T13:55:18.592Z,13.87
2022-08-26T13:58:21.850Z,13.91
2022-08-26T14:01:30.892Z,13.96
2022-08-26T14:04:33.914Z,13.98
2022-08-26T14:07:37.412Z,13.96
2022-08-26T14:10:40.936Z,13.97
2022-08-26T14:13:44.211Z,13.95
2022-08-26T14:16:59.072Z,13.93
2022-08-26T14:20:03.819Z,13.90
2022-08-26T14:23:14.575Z,13.86
2022-08-26T14:26:28.088Z,13.83
2022-08-26T14:29:32.704Z,13.76
2022-08-26T14:32:36.445Z,13.67
2022-08-26T14:35:39.822Z,13.58
2022-08-26T14:38:51.255Z,13.52
2022-08-26T14:41:57.133Z,13.50
2022-08-26T14:45:03.440Z,13.48
2022-08-26T14:48:06.606Z,13.41
2022-08-26T14:51:09.771Z,13.31
2022-08-26T14:54:14.352Z,13.22
2022-08-26T14:57:17.437Z,13.12
2022-08-26T15:00:20.572Z,13.09
2022-08-26T15:03:23.581Z,13.06
2022-08-26T15:06:26.730Z,12.99
2022-08-26T15:09:31.169Z,12.93
2022-08-26T15:12:34.371Z,12.84
2022-08-26T15:15:38.697Z,12.77
2022-08-26T15:18:41.909Z,12.72
2022-08-26T15:21:47.690Z,12.64
2022-08-26T15:24:53.623Z,12.59
2022-08-26T15:27:56.918Z,12.54
2022-08-26T15:31:00.985Z,12.49
2022-08-26T15:34:07.043Z,12.45
2022-08-26T15:37:10.394Z,12.39
2022-08-26T15:40:13.492Z,12.28
2022-08-26T15:43:28.738Z,12.20
2022-08-26T15:46:32.581Z,12.14
2022-08-26T15:49:35.684Z,12.07
2022-08-26T15:52:42.447Z,12.04
2022-08-26T15:55:45.538Z,11.98
2022-08-26T15:58:49.586Z,12.01
2022-08-26T16:01:53.050Z,12.05
2022-08-26T16:04:56.343Z,12.01
2022-08-26T16:08:03.940Z,11.95
2022-08-26T16:11:07.147Z,11.91
2022-08-26T16:14:10.235Z,11.80
2022-08-26T16:17:13.439Z,11.71
2022-08-26T16:20:17.489Z,11.69
2022-08-26T16:23:21.284Z,11.69
2022-08-26T16:26:30.289Z,11.63
2022-08-26T16:29:33.336Z,11.59
2022-08-26T16:32:36.579Z,11.59
2022-08-26T16:35:40.096Z,11.63
2022-08-26T16:38:50.548Z,11.70
2022-08-26T16:41:53.588Z,11.69
2022-08-26T16:44:56.720Z,11.67
2022-08-26T16:48:00.122Z,11.69
2022-08-26T16:51:03.612Z,11.78
2022-08-26T16:54:09.211Z,11.84
2022-08-26T16:57:13.610Z,11.89
2022-08-26T17:00:28.485Z,11.92
2022-08-26T17:03:31.679Z,11.87
2022-08-26T17:06:34.754Z,11.81
2022-08-26T17:09:38.068Z,11.77
2022-08-26T17:12:44.571Z,11.70
2022-08-26T17:15:58.402Z,11.63
2022-08-26T17:19:03.525Z,11.50
2022-08-26T17:22:08.948Z,11.36
2022-08-26T17:25:15.562Z,11.22
2022-08-26T17:28:18.603Z,11.10
2022-08-26T17:31:23.029Z,11.04
2022-08-26T17:34:26.164Z,11.00
2022-08-26T17:37:29.283Z,10.99
2022-08-26T17:40:32.370Z,10.91
2022-08-26T17:43:35.550Z,10.83
2022-08-26T17:46:38.760Z,10.77
2022-08-26T17:49:42.216Z,10.65
2022-08-26T17:52:46.454Z,10.58
2022-08-26T17:55:50.414Z,10.52
2022-08-26T17:59:02.412Z,10.51
2022-08-26T18:02:07.228Z,10.52
2022-08-26T18:05:12.445Z,10.53
2022-08-26T18:08:15.501Z,10.58
2022-08-26T18:11:21.487Z,10.61
2022-08-26T18:14:24.707Z,10.70
2022-08-26T18:17:27.934Z,10.75
2022-08-26T18:20:30.924Z,10.80
2022-08-26T18:23:36.816Z,10.77
2022-08-26T18:26:41.659Z,10.68
2022-08-26T18:29:45.524Z,10.68
2022-08-26T18:32:52.348Z,10.62
2022-08-26T18:35:55.445Z,10.49
2022-08-26T18:38:59.063Z,10.44
2022-08-26T18:42:02.135Z,10.41
2022-08-26T18:45:07.029Z,10.37
2022-08-26T18:48:09.936Z,10.39
2022-08-26T18:51:25.690Z,10.32
2022-08-26T18:54:30.550Z,10.27
2022-08-26T18:57:33.458Z,10.28
2022-08-26T19:00:36.935Z,10.24
2022-08-26T19:03:40.117Z,10.19
2022-08-26T19:06:46.047Z,10.21
2022-08-26T19:09:49.234Z,10.20
2022-08-26T19:13:00.679Z,10.18
2022-08-26T19:16:06.302Z,10.20
2022-08-26T19:19:10.183Z,10.28
2022-08-26T19:22:13.515Z,10.31
2022-08-26T19:25:16.891Z,10.29
2022-08-26T19:28:21.908Z,10.29
2022-08-26T19:31:24.764Z,10.29
2022-08-26T19:34:28.588Z,10.17
2022-08-26T19:37:31.942Z,10.14
2022-08-26T19:40:37.021Z,10.17
2022-08-26T19:43:40.523Z,10.23
2022-08-26T19:46:47.632Z,10.29
2022-08-26T19:49:55.911Z,10.34
2022-08-26T19:53:00.506Z,10.34
2022-08-26T19:56:04.229Z,10.31
2022-08-26T19:59:07.325Z,10.31
2022-08-26T20:02:11.827Z,10.29
2022-08-26T20:05:16.743Z,10.21
2022-08-26T20:08:22.534Z,10.22
2022-08-26T20:11:26.780Z,10.20
2022-08-26T20:14:30.584Z,10.17
2022-08-26T20:17:34.057Z,10.10
2022-08-26T20:20:55.750Z,10.03
2022-08-26T20:24:05.750Z,10.00
2022-08-26T20:27:08.821Z,10.00
2022-08-26T20:30:12.343Z,10.01
2022-08-26T20:33:15.611Z,9.98
2022-08-26T20:36:20.983Z,9.97
2022-08-26T20:39:24.094Z,9.94
2022-08-26T20:42:27.373Z,9.93
2022-08-26T20:45:30.542Z,9.92
2022-08-26T20:48:33.655Z,9.85
2022-08-26T20:51:38.072Z,9.78
2022-08-26T20:54:41.073Z,9.75
2022-08-26T20:57:44.083Z,9.70
2022-08-26T21:00:47.236Z,9.63
2022-08-26T21:03:53.043Z,9.57
2022-08-26T21:06:56.290Z,9.46
2022-08-26T21:10:00.018Z,9.33
2022-08-26T21:13:03.020Z,9.22
2022-08-26T21:16:06.254Z,9.14
2022-08-26T21:19:11.633Z,9.11
2022-08-26T21:22:14.752Z,9.02
2022-08-26T21:25:18.250Z,8.96
2022-08-26T21:28:21.275Z,8.97
2022-08-26T21:31:25.856Z,8.98
2022-08-26T21:34:28.887Z,8.97
2022-08-26T21:37:31.949Z,8.99
2022-08-26T21:40:35.031Z,8.99
2022-08-26T21:43:38.925Z,8.98
2022-08-26T21:46:42.856Z,8.95
2022-08-26T21:49:46.367Z,8.91
2022-08-26T21:52:49.540Z,8.93
2022-08-26T21:55:52.541Z,8.94
2022-08-26T21:58:57.141Z,9.01
2022-08-26T22:02:00.878Z,9.07
2022-08-26T22:05:04.893Z,9.16
2022-08-26T22:08:07.985Z,9.25
2022-08-26T22:11:11.396Z,9.29
2022-08-26T22:14:15.870Z,9.38
2022-08-26T22:17:19.010Z,9.40
2022-08-26T22:20:22.089Z,9.42
2022-08-26T22:23:25.637Z,9.41
2022-08-26T22:26:33.585Z,9.43
2022-08-26T22:29:36.685Z,9.73
2022-08-26T22:32:40.485Z,11.27
2022-08-26T22:35:47.159Z,13.79
2022-08-26T22:38:51.501Z,15.88
2022-08-26T22:41:55.835Z,17.41
2022-08-26T22:44:58.911Z,18.94
2022-08-26T22:48:05.778Z,20.58
2022-08-26T22:51:08.840Z,21.99
2022-08-26T22:54:12.456Z,23.65
2022-08-26T22:57:15.509Z,24.86
2022-08-26T23:00:18.607Z,25.64
2022-08-26T23:03:21.835Z,26.51
2022-08-26T23:06:25.868Z,27.20
2022-08-26T23:09:29.738Z,27.64
2022-08-26T23:12:33.153Z,28.03
2022-08-26T23:15:36.684Z,28.81
2022-08-26T23:18:41.105Z,29.26
2022-08-26T23:21:44.428Z,28.52
2022-08-26T23:24:47.469Z,28.62
2022-08-26T23:27:50.877Z,29.46
2022-08-26T23:30:54.570Z,30.50
2022-08-26T23:34:15.779Z,31.49
2022-08-26T23:37:20.961Z,32.57
2022-08-26T23:40:32.922Z,33.63
2022-08-26T23:43:36.060Z,33.74
2022-08-26T23:46:39.418Z,34.11
2022-08-26T23:49:42.423Z,36.34
2022-08-26T23:53:03.860Z,34.18
2022-08-26T23:56:15.379Z,34.29
2022-08-26T23:59:18.412Z,33.14
